sensor_id;sensor_type;location;lat;lon;timestamp;pressure;altitude;pressure_sealevel;temperature;humidity
59435;BME280;45241;49.768;8.636;2024-02-15T00:00:01;100616.00;;;12.27;100.00
59435;BME280;45241;49.768;8.636;2024-02-15T00:02:26;100617.50;;;12.30;100.00
59435;BME280;45241;49.768;8.636;2024-02-15T00:04:52;100624.69;;;12.29;100.00
59435;BME280;45241;49.768;8.636;2024-02-15T00:07:17;100629.09;;;12.30;100.00
59435;BME280;45241;49.768;8.636;2024-02-15T00:09:44;100628.75;;;12.19;100.00
59435;BME280;45241;49.768;8.636;2024-02-15T00:12:09;100625.09;;;12.26;100.00
59435;BME280;45241;49.768;8.636;2024-02-15T00:14:35;100626.38;;;12.30;100.00
59435;BME280;45241;49.768;8.636;2024-02-15T00:17:03;100619.53;;;12.28;100.00
59435;BME280;45241;49.768;8.636;2024-02-15T00:19:29;100615.69;;;12.37;100.00
59435;BME280;45241;49.768;8.636;2024-02-15T00:21:55;100610.19;;;12.24;100.00
59435;BME280;45241;49.768;8.636;2024-02-15T00:24:21;100613.22;;;12.42;100.00
59435;BME280;45241;49.768;8.636;2024-02-15T00:26:46;100609.34;;;12.45;100.00
59435;BME280;45241;49.768;8.636;2024-02-15T00:29:13;100613.94;;;12.51;100.00
59435;BME280;45241;49.768;8.636;2024-02-15T00:31:39;100609.09;;;12.40;100.00
59435;BME280;45241;49.768;8.636;2024-02-15T00:34:05;100599.44;;;12.45;100.00
59435;BME280;45241;49.768;8.636;2024-02-15T00:36:31;100595.31;;;12.49;100.00
59435;BME280;45241;49.768;8.636;2024-02-15T00:38:57;100595.38;;;12.56;100.00
59435;BME280;45241;49.768;8.636;2024-02-15T00:41:22;100595.41;;;12.62;100.00
59435;BME280;45241;49.768;8.636;2024-02-15T00:43:48;100601.19;;;12.59;100.00
59435;BME280;45241;49.768;8.636;2024-02-15T00:46:15;100596.63;;;12.60;100.00
59435;BME280;45241;49.768;8.636;2024-02-15T00:48:41;100602.78;;;12.54;100.00
59435;BME280;45241;49.768;8.636;2024-02-15T00:51:06;100606.50;;;12.53;100.00
59435;BME280;45241;49.768;8.636;2024-02-15T00:53:32;100601.41;;;12.65;100.00
59435;BME280;45241;49.768;8.636;2024-02-15T00:55:57;100602.06;;;12.67;100.00
59435;BME280;45241;49.768;8.636;2024-02-15T00:58:22;100607.19;;;12.61;100.00
59435;BME280;45241;49.768;8.636;2024-02-15T01:00:49;100613.41;;;12.62;100.00
59435;BME280;45241;49.768;8.636;2024-02-15T01:03:15;100609.06;;;12.61;100.00
59435;BME280;45241;49.768;8.636;2024-02-15T01:05:40;100608.31;;;12.46;100.00
59435;BME280;45241;49.768;8.636;2024-02-15T01:08:06;100611.50;;;12.56;100.00
59435;BME280;45241;49.768;8.636;2024-02-15T01:10:31;100608.44;;;12.59;100.00
59435;BME280;45241;49.768;8.636;2024-02-15T01:12:56;100605.53;;;12.60;100.00
59435;BME280;45241;49.768;8.636;2024-02-15T01:15:22;100616.72;;;12.64;100.00
59435;BME280;45241;49.768;8.636;2024-02-15T01:17:47;100610.50;;;12.63;100.00
59435;BME280;45241;49.768;8.636;2024-02-15T01:20:13;100607.59;;;12.58;100.00
59435;BME280;45241;49.768;8.636;2024-02-15T01:22:38;100605.38;;;12.69;100.00
59435;BME280;45241;49.768;8.636;2024-02-15T01:25:04;100605.63;;;12.74;100.00
59435;BME280;45241;49.768;8.636;2024-02-15T01:27:29;100608.44;;;12.59;100.00
59435;BME280;45241;49.768;8.636;2024-02-15T01:29:58;100607.22;;;12.68;100.00
59435;BME280;45241;49.768;8.636;2024-02-15T01:32:23;100606.22;;;12.69;100.00
59435;BME280;45241;49.768;8.636;2024-02-15T01:34:48;100599.56;;;12.65;100.00
59435;BME280;45241;49.768;8.636;2024-02-15T01:37:16;100602.88;;;12.67;100.00
59435;BME280;45241;49.768;8.636;2024-02-15T01:39:42;100605.44;;;12.75;100.00
59435;BME280;45241;49.768;8.636;2024-02-15T01:42:07;100603.13;;;12.72;100.00
59435;BME280;45241;49.768;8.636;2024-02-15T01:44:32;100606.88;;;12.71;100.00
59435;BME280;45241;49.768;8.636;2024-02-15T01:46:58;100603.13;;;12.72;100.00
59435;BME280;45241;49.768;8.636;2024-02-15T01:49:24;100613.06;;;12.72;100.00
59435;BME280;45241;49.768;8.636;2024-02-15T01:51:51;100606.47;;;12.74;100.00
59435;BME280;45241;49.768;8.636;2024-02-15T01:54:19;100605.44;;;12.75;100.00
59435;BME280;45241;49.768;8.636;2024-02-15T01:56:45;100608.19;;;12.82;100.00
59435;BME280;45241;49.768;8.636;2024-02-15T01:59:13;100607.97;;;12.83;100.00
59435;BME280;45241;49.768;8.636;2024-02-15T02:01:40;100604.81;;;12.73;100.00
59435;BME280;45241;49.768;8.636;2024-02-15T02:04:06;100601.94;;;12.81;100.00
59435;BME280;45241;49.768;8.636;2024-02-15T02:06:32;100606.88;;;12.71;100.00
59435;BME280;45241;49.768;8.636;2024-02-15T02:08:58;100600.66;;;12.71;100.00
59435;BME280;45241;49.768;8.636;2024-02-15T02:11:24;100608.06;;;12.69;100.00
59435;BME280;45241;49.768;8.636;2024-02-15T02:13:49;100606.06;;;12.77;100.00
59435;BME280;45241;49.768;8.636;2024-02-15T02:16:30;100605.50;;;12.82;100.00
59435;BME280;45241;49.768;8.636;2024-02-15T02:19:01;100599.03;;;12.76;100.00
59435;BME280;45241;49.768;8.636;2024-02-15T02:21:26;100604.25;;;12.84;100.00
59435;BME280;45241;49.768;8.636;2024-02-15T02:23:53;100605.44;;;12.75;100.00
59435;BME280;45241;49.768;8.636;2024-02-15T02:26:21;100595.38;;;12.84;100.00
59435;BME280;45241;49.768;8.636;2024-02-15T02:28:47;100599.44;;;12.80;100.00
59435;BME280;45241;49.768;8.636;2024-02-15T02:31:13;100589.44;;;12.67;100.00
59435;BME280;45241;49.768;8.636;2024-02-15T02:33:39;100592.41;;;12.79;100.00
59435;BME280;45241;49.768;8.636;2024-02-15T02:36:06;100592.47;;;12.85;100.00
59435;BME280;45241;49.768;8.636;2024-02-15T02:38:37;100593.00;;;12.74;100.00
59435;BME280;45241;49.768;8.636;2024-02-15T02:41:05;100589.16;;;12.83;100.00
59435;BME280;45241;49.768;8.636;2024-02-15T02:43:30;100581.06;;;12.83;100.00
59435;BME280;45241;49.768;8.636;2024-02-15T02:45:55;100579.56;;;12.74;100.00
59435;BME280;45241;49.768;8.636;2024-02-15T02:48:21;100584.53;;;12.77;100.00
59435;BME280;45241;49.768;8.636;2024-02-15T02:50:47;100584.72;;;12.69;100.00
59435;BME280;45241;49.768;8.636;2024-02-15T02:53:13;100583.69;;;12.70;100.00
59435;BME280;45241;49.768;8.636;2024-02-15T02:55:40;100586.81;;;12.74;100.00
59435;BME280;45241;49.768;8.636;2024-02-15T02:58:05;100583.69;;;12.70;100.00
59435;BME280;45241;49.768;8.636;2024-02-15T03:00:32;100574.38;;;12.73;100.00
59435;BME280;45241;49.768;8.636;2024-02-15T03:02:58;100576.47;;;12.77;100.00
59435;BME280;45241;49.768;8.636;2024-02-15T03:05:25;100570.41;;;12.69;100.00
59435;BME280;45241;49.768;8.636;2024-02-15T03:07:50;100570.81;;;12.66;100.00
59435;BME280;45241;49.768;8.636;2024-02-15T03:10:17;100572.47;;;12.67;100.00
59435;BME280;45241;49.768;8.636;2024-02-15T03:12:43;100578.09;;;12.44;100.00
59435;BME280;45241;49.768;8.636;2024-02-15T03:15:12;100581.69;;;12.29;100.00
59435;BME280;45241;49.768;8.636;2024-02-15T03:17:42;100575.66;;;12.49;100.00
59435;BME280;45241;49.768;8.636;2024-02-15T03:20:08;100579.03;;;12.57;100.00
59435;BME280;45241;49.768;8.636;2024-02-15T03:22:38;100577.38;;;12.56;100.00
59435;BME280;45241;49.768;8.636;2024-02-15T03:25:06;100580.25;;;12.55;100.00
59435;BME280;45241;49.768;8.636;2024-02-15T03:27:36;100573.25;;;12.60;100.00
59435;BME280;45241;49.768;8.636;2024-02-15T03:30:03;100570.97;;;12.57;100.00
59435;BME280;45241;49.768;8.636;2024-02-15T03:32:29;100588.78;;;12.37;100.00
59435;BME280;45241;49.768;8.636;2024-02-15T03:34:55;100587.25;;;12.49;100.00
59435;BME280;45241;49.768;8.636;2024-02-15T03:37:20;100575.25;;;12.52;100.00
59435;BME280;45241;49.768;8.636;2024-02-15T03:39:46;100578.75;;;12.46;100.00
59435;BME280;45241;49.768;8.636;2024-02-15T03:42:12;100573.16;;;12.47;100.00
59435;BME280;45241;49.768;8.636;2024-02-15T03:44:37;100578.53;;;12.47;100.00
59435;BME280;45241;49.768;8.636;2024-02-15T03:47:06;100580.69;;;12.30;100.00
59435;BME280;45241;49.768;8.636;2024-02-15T03:49:32;100579.91;;;12.37;100.00
59435;BME280;45241;49.768;8.636;2024-02-15T03:51:58;100581.03;;;12.49;100.00
59435;BME280;45241;49.768;8.636;2024-02-15T03:54:26;100582.47;;;12.45;100.00
59435;BME280;45241;49.768;8.636;2024-02-15T03:56:52;100585.97;;;12.45;100.00
59435;BME280;45241;49.768;8.636;2024-02-15T03:59:18;100578.97;;;12.51;100.00
59435;BME280;45241;49.768;8.636;2024-02-15T04:01:46;100576.06;;;12.46;100.00
59435;BME280;45241;49.768;8.636;2024-02-15T04:04:12;100590.75;;;12.50;100.00
59435;BME280;45241;49.768;8.636;2024-02-15T04:06:38;100581.22;;;12.47;100.00
59435;BME280;45241;49.768;8.636;2024-02-15T04:09:05;100581.06;;;12.27;100.00
59435;BME280;45241;49.768;8.636;2024-02-15T04:11:32;100584.78;;;12.26;100.00
59435;BME280;45241;49.768;8.636;2024-02-15T04:13:58;100572.22;;;12.33;100.00
59435;BME280;45241;49.768;8.636;2024-02-15T04:16:24;100586.44;;;12.27;100.00
59435;BME280;45241;49.768;8.636;2024-02-15T04:18:50;100570.94;;;12.29;100.00
59435;BME280;45241;49.768;8.636;2024-02-15T04:21:16;100567.16;;;12.45;100.00
59435;BME280;45241;49.768;8.636;2024-02-15T04:23:45;100561.59;;;12.47;100.00
59435;BME280;45241;49.768;8.636;2024-02-15T04:26:10;100565.94;;;12.48;100.00
59435;BME280;45241;49.768;8.636;2024-02-15T04:28:39;100564.28;;;12.47;100.00
59435;BME280;45241;49.768;8.636;2024-02-15T04:31:04;100572.75;;;12.22;100.00
59435;BME280;45241;49.768;8.636;2024-02-15T04:33:33;100572.03;;;12.35;100.00
59435;BME280;45241;49.768;8.636;2024-02-15T04:35:58;100559.84;;;12.39;100.00
59435;BME280;45241;49.768;8.636;2024-02-15T04:38:25;100572.47;;;12.39;100.00
59435;BME280;45241;49.768;8.636;2024-02-15T04:40:51;100572.84;;;12.08;100.00
59435;BME280;45241;49.768;8.636;2024-02-15T04:43:18;100569.63;;;12.19;100.00
59435;BME280;45241;49.768;8.636;2024-02-15T04:45:44;100571.59;;;12.31;100.00
59435;BME280;45241;49.768;8.636;2024-02-15T04:48:11;100568.34;;;12.43;100.00
59435;BME280;45241;49.768;8.636;2024-02-15T04:50:38;100571.88;;;11.94;100.00
59435;BME280;45241;49.768;8.636;2024-02-15T04:53:04;100574.41;;;12.23;100.00
59435;BME280;45241;49.768;8.636;2024-02-15T04:55:30;100563.53;;;12.31;100.00
59435;BME280;45241;49.768;8.636;2024-02-15T04:57:56;100557.91;;;12.26;100.00
59435;BME280;45241;49.768;8.636;2024-02-15T05:00:22;100550.97;;;12.39;100.00
59435;BME280;45241;49.768;8.636;2024-02-15T05:02:48;100545.84;;;12.44;100.00
59435;BME280;45241;49.768;8.636;2024-02-15T05:05:14;100543.38;;;12.49;100.00
59435;BME280;45241;49.768;8.636;2024-02-15T05:07:41;100541.72;;;12.48;100.00
59435;BME280;45241;49.768;8.636;2024-02-15T05:10:08;100540.69;;;12.49;100.00
59435;BME280;45241;49.768;8.636;2024-02-15T05:12:35;100543.69;;;12.32;100.00
59435;BME280;45241;49.768;8.636;2024-02-15T05:15:00;100551.88;;;12.24;100.00
59435;BME280;45241;49.768;8.636;2024-02-15T05:17:26;100543.63;;;12.26;100.00
59435;BME280;45241;49.768;8.636;2024-02-15T05:19:55;100543.28;;;12.36;100.00
59435;BME280;45241;49.768;8.636;2024-02-15T05:22:24;100547.06;;;11.92;100.00
59435;BME280;45241;49.768;8.636;2024-02-15T05:24:52;100549.72;;;12.13;100.00
59435;BME280;45241;49.768;8.636;2024-02-15T05:27:17;100542.22;;;12.30;100.00
59435;BME280;45241;49.768;8.636;2024-02-15T05:29:43;100547.50;;;12.45;100.00
59435;BME280;45241;49.768;8.636;2024-02-15T05:32:08;100544.66;;;12.53;100.00
59435;BME280;45241;49.768;8.636;2024-02-15T05:34:34;100544.91;;;12.58;100.00
59435;BME280;45241;49.768;8.636;2024-02-15T05:37:04;100542.16;;;12.51;100.00
59435;BME280;45241;49.768;8.636;2024-02-15T05:39:31;100537.94;;;12.42;100.00
59435;BME280;45241;49.768;8.636;2024-02-15T05:41:56;100538.22;;;12.47;100.00
59435;BME280;45241;49.768;8.636;2024-02-15T05:44:25;100542.78;;;12.25;100.00
59435;BME280;45241;49.768;8.636;2024-02-15T05:46:51;100540.09;;;12.25;100.00
59435;BME280;45241;49.768;8.636;2024-02-15T05:49:16;100538.41;;;12.46;100.00
59435;BME280;45241;49.768;8.636;2024-02-15T05:51:43;100529.97;;;12.27;100.00
59435;BME280;45241;49.768;8.636;2024-02-15T05:54:08;100533.25;;;12.51;100.00
59435;BME280;45241;49.768;8.636;2024-02-15T05:56:33;100525.88;;;12.59;100.00
59435;BME280;45241;49.768;8.636;2024-02-15T05:58:59;100526.97;;;12.37;100.00
59435;BME280;45241;49.768;8.636;2024-02-15T06:01:24;100525.53;;;12.41;100.00
59435;BME280;45241;49.768;8.636;2024-02-15T06:03:50;100527.84;;;12.44;100.00
59435;BME280;45241;49.768;8.636;2024-02-15T06:06:19;100529.72;;;12.44;100.00
59435;BME280;45241;49.768;8.636;2024-02-15T06:08:46;100525.81;;;12.53;100.00
59435;BME280;45241;49.768;8.636;2024-02-15T06:11:12;100524.25;;;12.30;100.00
59435;BME280;45241;49.768;8.636;2024-02-15T06:13:37;100519.31;;;12.41;100.00
59435;BME280;45241;49.768;8.636;2024-02-15T06:16:03;100516.81;;;12.32;100.00
59435;BME280;45241;49.768;8.636;2024-02-15T06:18:34;100517.84;;;12.31;100.00
59435;BME280;45241;49.768;8.636;2024-02-15T06:20:59;100524.03;;;12.04;100.00
59435;BME280;45241;49.768;8.636;2024-02-15T06:23:26;100519.97;;;12.15;100.00
59435;BME280;45241;49.768;8.636;2024-02-15T06:25:54;100524.34;;;12.44;100.00
59435;BME280;45241;49.768;8.636;2024-02-15T06:28:22;100527.84;;;12.44;100.00
59435;BME280;45241;49.768;8.636;2024-02-15T06:31:11;100525.34;;;12.43;100.00
59435;BME280;45241;49.768;8.636;2024-02-15T06:33:55;100523.00;;;12.05;100.00
59435;BME280;45241;49.768;8.636;2024-02-15T06:39:29;100527.84;;;12.44;100.00
59435;BME280;45241;49.768;8.636;2024-02-15T06:42:10;100524.16;;;12.52;100.00
59435;BME280;45241;49.768;8.636;2024-02-15T06:44:37;100523.97;;;12.25;100.00
59435;BME280;45241;49.768;8.636;2024-02-15T06:47:03;100521.00;;;12.42;100.00
59435;BME280;45241;49.768;8.636;2024-02-15T06:49:29;100516.50;;;12.49;100.00
59435;BME280;45241;49.768;8.636;2024-02-15T06:51:54;100517.81;;;12.59;100.00
59435;BME280;45241;49.768;8.636;2024-02-15T06:54:19;100517.25;;;12.36;100.00
59435;BME280;45241;49.768;8.636;2024-02-15T06:56:45;100513.25;;;12.60;100.00
59435;BME280;45241;49.768;8.636;2024-02-15T06:59:14;100508.91;;;12.59;100.00
59435;BME280;45241;49.768;8.636;2024-02-15T07:01:43;100512.19;;;12.54;100.00
59435;BME280;45241;49.768;8.636;2024-02-15T07:04:09;100507.88;;;12.60;100.00
59435;BME280;45241;49.768;8.636;2024-02-15T07:06:38;100516.72;;;12.54;100.00
59435;BME280;45241;49.768;8.636;2024-02-15T07:09:06;100509.88;;;12.45;100.00
59435;BME280;45241;49.768;8.636;2024-02-15T07:11:35;100512.19;;;12.54;100.00
59435;BME280;45241;49.768;8.636;2024-02-15T07:14:01;100516.53;;;12.55;100.00
59435;BME280;45241;49.768;8.636;2024-02-15T07:16:26;100521.75;;;12.57;100.00
59435;BME280;45241;49.768;8.636;2024-02-15T07:18:52;100518.47;;;12.68;100.00
59435;BME280;45241;49.768;8.636;2024-02-15T07:21:17;100519.75;;;12.72;100.00
59435;BME280;45241;49.768;8.636;2024-02-15T07:23:46;100524.53;;;12.77;100.00
59435;BME280;45241;49.768;8.636;2024-02-15T07:26:11;100516.34;;;12.91;100.00
59435;BME280;45241;49.768;8.636;2024-02-15T07:28:37;100519.25;;;12.90;100.00
59435;BME280;45241;49.768;8.636;2024-02-15T07:31:03;100526.53;;;12.96;100.00
59435;BME280;45241;49.768;8.636;2024-02-15T07:33:28;100527.78;;;12.66;100.00
59435;BME280;45241;49.768;8.636;2024-02-15T07:35:54;100519.56;;;12.80;100.00
59435;BME280;45241;49.768;8.636;2024-02-15T07:38:21;100514.25;;;12.87;100.00
59435;BME280;45241;49.768;8.636;2024-02-15T07:40:48;100521.16;;;12.96;100.00
59435;BME280;45241;49.768;8.636;2024-02-15T07:43:14;100518.47;;;12.96;100.00
59435;BME280;45241;49.768;8.636;2024-02-15T07:45:39;100512.47;;;13.01;100.00
59435;BME280;45241;49.768;8.636;2024-02-15T07:48:04;100517.28;;;12.77;100.00
59435;BME280;45241;49.768;8.636;2024-02-15T07:50:30;100517.59;;;12.89;100.00
59435;BME280;45241;49.768;8.636;2024-02-15T07:52:56;100525.34;;;12.77;100.00
59435;BME280;45241;49.768;8.636;2024-02-15T07:55:22;100528.63;;;13.07;100.00
59435;BME280;45241;49.768;8.636;2024-02-15T07:57:50;100530.97;;;13.17;100.00
59435;BME280;45241;49.768;8.636;2024-02-15T08:00:15;100532.25;;;13.21;100.00
59435;BME280;45241;49.768;8.636;2024-02-15T08:02:42;100527.91;;;13.27;100.00
59435;BME280;45241;49.768;8.636;2024-02-15T08:05:09;100533.09;;;13.28;100.00
59435;BME280;45241;49.768;8.636;2024-02-15T08:07:38;100527.91;;;13.33;100.00
59435;BME280;45241;49.768;8.636;2024-02-15T08:10:05;100537.44;;;13.29;100.00
59435;BME280;45241;49.768;8.636;2024-02-15T08:12:33;100533.94;;;13.42;100.00
59435;BME280;45241;49.768;8.636;2024-02-15T08:14:58;100536.03;;;13.46;100.00
59435;BME280;45241;49.768;8.636;2024-02-15T08:17:23;100538.50;;;13.41;100.00
59435;BME280;45241;49.768;8.636;2024-02-15T08:19:48;100540.53;;;13.26;100.00
59435;BME280;45241;49.768;8.636;2024-02-15T08:22:14;100551.75;;;13.36;100.00
59435;BME280;45241;49.768;8.636;2024-02-15T08:24:40;100550.94;;;13.42;100.00
59435;BME280;45241;49.768;8.636;2024-02-15T08:27:05;100546.59;;;13.41;100.00
59435;BME280;45241;49.768;8.636;2024-02-15T08:29:30;100546.78;;;13.40;100.00
59435;BME280;45241;49.768;8.636;2024-02-15T08:31:56;100545.13;;;13.39;100.00
59435;BME280;45241;49.768;8.636;2024-02-15T08:34:21;100539.97;;;13.44;100.00
59435;BME280;45241;49.768;8.636;2024-02-15T08:36:46;100538.13;;;13.51;100.00
59435;BME280;45241;49.768;8.636;2024-02-15T08:39:13;100543.53;;;13.51;100.00
59435;BME280;45241;49.768;8.636;2024-02-15T08:41:42;100539.59;;;13.54;100.00
59435;BME280;45241;49.768;8.636;2024-02-15T08:44:08;100549.31;;;13.48;100.00
59435;BME280;45241;49.768;8.636;2024-02-15T08:46:37;100543.75;;;13.63;100.00
59435;BME280;45241;49.768;8.636;2024-02-15T08:49:02;100544.38;;;13.65;100.00
59435;BME280;45241;49.768;8.636;2024-02-15T08:51:31;100540.66;;;13.66;100.00
59435;BME280;45241;49.768;8.636;2024-02-15T08:53:57;100537.34;;;13.64;100.00
59435;BME280;45241;49.768;8.636;2024-02-15T08:56:23;100528.22;;;13.71;100.00
59435;BME280;45241;49.768;8.636;2024-02-15T08:58:48;100532.81;;;13.77;100.00
59435;BME280;45241;49.768;8.636;2024-02-15T09:01:14;100525.34;;;13.79;100.00
59435;BME280;45241;49.768;8.636;2024-02-15T09:03:39;100528.66;;;13.95;100.00
59435;BME280;45241;49.768;8.636;2024-02-15T09:06:05;100523.72;;;14.05;100.00
59435;BME280;45241;49.768;8.636;2024-02-15T09:08:33;100528.47;;;13.96;100.00
59435;BME280;45241;49.768;8.636;2024-02-15T09:10:58;100531.38;;;14.01;100.00
59435;BME280;45241;49.768;8.636;2024-02-15T09:13:23;100528.69;;;14.08;100.00
59435;BME280;45241;49.768;8.636;2024-02-15T09:15:48;100522.03;;;14.24;100.00
59435;BME280;45241;49.768;8.636;2024-02-15T09:18:15;100523.06;;;14.09;100.00
59435;BME280;45241;49.768;8.636;2024-02-15T09:20:43;100524.34;;;14.14;100.00
59435;BME280;45241;49.768;8.636;2024-02-15T09:23:10;100517.09;;;14.01;100.00
59435;BME280;45241;49.768;8.636;2024-02-15T09:25:41;100524.56;;;14.12;100.00
59435;BME280;45241;49.768;8.636;2024-02-15T09:28:09;100517.50;;;14.18;100.00
59435;BME280;45241;49.768;8.636;2024-02-15T09:30:34;100514.00;;;14.30;100.00
59435;BME280;45241;49.768;8.636;2024-02-15T09:33:00;100506.06;;;14.22;100.00
59435;BME280;45241;49.768;8.636;2024-02-15T09:35:26;100508.59;;;14.30;100.00
59435;BME280;45241;49.768;8.636;2024-02-15T09:37:52;100510.03;;;14.46;100.00
59435;BME280;45241;49.768;8.636;2024-02-15T09:40:18;100507.13;;;14.54;100.00
59435;BME280;45241;49.768;8.636;2024-02-15T09:42:44;100510.22;;;14.45;100.00
59435;BME280;45241;49.768;8.636;2024-02-15T09:45:11;100503.78;;;14.46;100.00
59435;BME280;45241;49.768;8.636;2024-02-15T09:47:38;100507.91;;;14.61;100.00
59435;BME280;45241;49.768;8.636;2024-02-15T09:50:11;100495.03;;;14.63;100.00
59435;BME280;45241;49.768;8.636;2024-02-15T09:52:39;100499.75;;;14.88;100.00
59435;BME280;45241;49.768;8.636;2024-02-15T09:55:07;100497.47;;;14.91;100.00
59435;BME280;45241;49.768;8.636;2024-02-15T09:57:35;100496.88;;;14.83;100.00
59435;BME280;45241;49.768;8.636;2024-02-15T10:00:01;100492.97;;;14.65;100.00
59435;BME280;45241;49.768;8.636;2024-02-15T10:02:28;100490.47;;;14.64;100.00
59435;BME280;45241;49.768;8.636;2024-02-15T10:04:56;100496.25;;;14.81;100.00
59435;BME280;45241;49.768;8.636;2024-02-15T10:07:24;100498.09;;;14.87;100.00
59435;BME280;45241;49.768;8.636;2024-02-15T10:09:49;100494.50;;;15.00;100.00
59435;BME280;45241;49.768;8.636;2024-02-15T10:12:14;100478.41;;;14.80;100.00
59435;BME280;45241;49.768;8.636;2024-02-15T10:14:48;100483.72;;;15.00;100.00
59435;BME280;45241;49.768;8.636;2024-02-15T10:17:15;100478.25;;;15.19;100.00
59435;BME280;45241;49.768;8.636;2024-02-15T10:19:42;100473.63;;;15.26;100.00
59435;BME280;45241;49.768;8.636;2024-02-15T10:22:10;100483.56;;;15.33;100.00
59435;BME280;45241;49.768;8.636;2024-02-15T10:24:36;100485.38;;;15.01;100.00
59435;BME280;45241;49.768;8.636;2024-02-15T10:27:03;100481.94;;;15.25;100.00
59435;BME280;45241;49.768;8.636;2024-02-15T10:29:29;100482.38;;;15.15;100.00
59435;BME280;45241;49.768;8.636;2024-02-15T10:31:56;100475.19;;;15.41;100.00
59435;BME280;45241;49.768;8.636;2024-02-15T10:34:24;100472.31;;;14.97;100.00
59435;BME280;45241;49.768;8.636;2024-02-15T10:36:52;100481.50;;;15.28;100.00
59435;BME280;45241;49.768;8.636;2024-02-15T10:39:19;100473.13;;;15.43;100.00
59435;BME280;45241;49.768;8.636;2024-02-15T10:41:52;100473.16;;;15.36;100.00
59435;BME280;45241;49.768;8.636;2024-02-15T10:44:22;100475.03;;;15.36;100.00
59435;BME280;45241;49.768;8.636;2024-02-15T10:46:49;100469.03;;;15.27;100.00
59435;BME280;45241;49.768;8.636;2024-02-15T10:49:24;100464.59;;;15.46;100.00
59435;BME280;45241;49.768;8.636;2024-02-15T10:51:59;100459.56;;;15.49;100.00
59435;BME280;45241;49.768;8.636;2024-02-15T10:54:46;100463.03;;;15.63;100.00
59435;BME280;45241;49.768;8.636;2024-02-15T10:57:13;100452.47;;;15.55;100.00
59435;BME280;45241;49.768;8.636;2024-02-15T10:59:46;100452.13;;;15.76;100.00
59435;BME280;45241;49.768;8.636;2024-02-15T11:02:30;100440.03;;;15.79;100.00
59435;BME280;45241;49.768;8.636;2024-02-15T11:05:02;100437.34;;;15.79;100.00
59435;BME280;45241;49.768;8.636;2024-02-15T11:07:29;100431.56;;;15.75;100.00
59435;BME280;45241;49.768;8.636;2024-02-15T11:09:56;100428.28;;;15.92;100.00
59435;BME280;45241;49.768;8.636;2024-02-15T11:12:25;100436.88;;;16.07;100.00
59435;BME280;45241;49.768;8.636;2024-02-15T11:14:52;100427.31;;;15.86;100.00
59435;BME280;45241;49.768;8.636;2024-02-15T11:20:08;100426.59;;;15.97;100.00
59435;BME280;45241;49.768;8.636;2024-02-15T11:22:38;100417.94;;;16.07;100.00
59435;BME280;45241;49.768;8.636;2024-02-15T11:25:05;100414.63;;;15.87;100.00
59435;BME280;45241;49.768;8.636;2024-02-15T11:27:35;100409.56;;;16.15;100.00
59435;BME280;45241;49.768;8.636;2024-02-15T11:30:02;100400.25;;;16.29;100.00
59435;BME280;45241;49.768;8.636;2024-02-15T11:32:49;100403.97;;;16.71;100.00
59435;BME280;45241;49.768;8.636;2024-02-15T11:35:23;100399.34;;;16.17;100.00
59435;BME280;45241;49.768;8.636;2024-02-15T11:40:15;100390.81;;;16.38;100.00
59435;BME280;45241;49.768;8.636;2024-02-15T11:42:42;100394.09;;;16.40;100.00
59435;BME280;45241;49.768;8.636;2024-02-15T11:45:08;100381.81;;;16.93;100.00
59435;BME280;45241;49.768;8.636;2024-02-15T11:47:38;100384.63;;;16.86;100.00
59435;BME280;45241;49.768;8.636;2024-02-15T11:50:08;100385.84;;;16.72;100.00
59435;BME280;45241;49.768;8.636;2024-02-15T11:52:37;100382.66;;;16.93;100.00
59435;BME280;45241;49.768;8.636;2024-02-15T11:55:07;100378.03;;;17.24;100.00
59435;BME280;45241;49.768;8.636;2024-02-15T11:57:37;100384.84;;;16.66;100.00
59435;BME280;45241;49.768;8.636;2024-02-15T12:00:33;100371.75;;;16.82;100.00
59435;BME280;45241;49.768;8.636;2024-02-15T12:03:18;100371.91;;;16.87;100.00
59435;BME280;45241;49.768;8.636;2024-02-15T12:06:02;100364.78;;;17.04;100.00
59435;BME280;45241;49.768;8.636;2024-02-15T12:08:47;100359.19;;;17.17;100.00
59435;BME280;45241;49.768;8.636;2024-02-15T12:11:31;100356.09;;;16.84;100.00
59435;BME280;45241;49.768;8.636;2024-02-15T12:14:16;100353.59;;;17.00;100.00
59435;BME280;45241;49.768;8.636;2024-02-15T12:17:10;100351.59;;;17.08;100.00
59435;BME280;45241;49.768;8.636;2024-02-15T12:19:56;100339.75;;;16.60;100.00
59435;BME280;45241;49.768;8.636;2024-02-15T12:27:20;100326.66;;;17.06;100.00
59435;BME280;45241;49.768;8.636;2024-02-15T12:29:52;100328.28;;;17.07;100.00
59435;BME280;45241;49.768;8.636;2024-02-15T12:32:27;100308.31;;;17.31;100.00
59435;BME280;45241;49.768;8.636;2024-02-15T12:35:10;100314.84;;;17.88;100.00
59435;BME280;45241;49.768;8.636;2024-02-15T12:37:42;100315.78;;;17.71;100.00
59435;BME280;45241;49.768;8.636;2024-02-15T12:40:16;100308.53;;;17.18;100.00
59435;BME280;45241;49.768;8.636;2024-02-15T12:42:45;100307.41;;;17.60;100.00
59435;BME280;45241;49.768;8.636;2024-02-15T12:45:16;100302.78;;;17.49;100.00
59435;BME280;45241;49.768;8.636;2024-02-15T12:47:49;100301.97;;;17.60;100.00
59435;BME280;45241;49.768;8.636;2024-02-15T12:50:20;100296.91;;;17.29;100.00
59435;BME280;45241;49.768;8.636;2024-02-15T12:52:47;100301.72;;;17.50;100.00
59435;BME280;45241;49.768;8.636;2024-02-15T12:55:20;100295.50;;;17.26;100.00